createdAt,value
2022-11-17T00:03:32.742Z,20.13
2022-11-17T00:08:35.634Z,23.15
2022-11-17T00:13:56.447Z,16.80
2022-11-17T00:19:17.633Z,16.95
2022-11-17T00:24:19.995Z,17.45
2022-11-17T00:29:22.416Z,17.67
2022-11-17T00:34:24.770Z,16.42
2022-11-17T00:39:30.198Z,16.20
2022-11-17T00:44:32.758Z,17.95
2022-11-17T00:49:36.841Z,17.08
2022-11-17T00:54:39.253Z,16.92
2022-11-17T00:59:41.637Z,17.35
2022-11-17T01:04:44.095Z,16.48
2022-11-17T01:09:46.715Z,16.63
2022-11-17T01:14:49.285Z,18.17
2022-11-17T01:19:51.610Z,17.98
2022-11-17T01:24:54.706Z,16.35
2022-11-17T01:29:58.100Z,15.93
2022-11-17T01:35:00.507Z,15.52
2022-11-17T01:40:04.823Z,16.73
2022-11-17T01:45:21.400Z,16.25
2022-11-17T01:50:29.615Z,17.30
2022-11-17T01:55:36.757Z,17.75
2022-11-17T02:00:39.202Z,18.05
2022-11-17T02:05:53.095Z,15.88
2022-11-17T02:15:57.979Z,16.27
2022-11-17T02:21:31.337Z,12.13
2022-11-17T02:26:42.844Z,16.70
2022-11-17T02:31:48.204Z,16.00
2022-11-17T02:36:57.197Z,16.58
2022-11-17T02:42:16.712Z,15.73
2022-11-17T02:47:22.773Z,16.92
2022-11-17T02:52:26.812Z,17.60
2022-11-17T02:57:34.442Z,16.83
2022-11-17T03:03:03.176Z,17.20
2022-11-17T03:08:32.927Z,16.38
2022-11-17T03:13:55.664Z,16.25
2022-11-17T03:19:01.028Z,16.90
2022-11-17T03:24:09.357Z,16.35
2022-11-17T03:29:14.440Z,16.20
2022-11-17T03:34:18.778Z,15.20
2022-11-17T03:39:25.947Z,16.50
2022-11-17T03:44:29.601Z,16.65
2022-11-17T03:49:45.453Z,17.45
2022-11-17T03:54:47.949Z,18.17
2022-11-17T03:59:57.007Z,16.92
2022-11-17T04:05:08.701Z,16.98
2022-11-17T04:10:16.514Z,17.80
2022-11-17T04:15:38.248Z,18.63
2022-11-17T04:20:40.919Z,17.67
2022-11-17T04:26:07.182Z,17.65
2022-11-17T04:31:19.724Z,18.70
2022-11-17T04:36:31.578Z,19.13
2022-11-17T04:41:53.511Z,19.00
2022-11-17T04:46:56.650Z,17.65
2022-11-17T04:51:59.060Z,19.83
2022-11-17T04:57:01.429Z,19.38
2022-11-17T05:02:06.160Z,19.90
2022-11-17T05:07:09.395Z,20.67
2022-11-17T05:12:30.621Z,19.03
2022-11-17T05:17:32.959Z,19.05
2022-11-17T05:22:53.782Z,19.65
2022-11-17T05:27:56.271Z,19.27
2022-11-17T05:32:58.505Z,19.88
2022-11-17T05:38:00.777Z,17.95
2022-11-17T05:43:03.130Z,17.80
2022-11-17T05:48:05.829Z,18.45
2022-11-17T05:53:08.361Z,13.43
2022-11-17T05:58:14.985Z,19.15
2022-11-17T06:03:24.754Z,17.48
2022-11-17T06:08:29.247Z,17.50
2022-11-17T06:13:44.297Z,18.42
2022-11-17T06:18:51.998Z,17.98
2022-11-17T06:23:54.295Z,19.17
2022-11-17T06:28:57.085Z,18.58
2022-11-17T06:34:03.331Z,18.40
2022-11-17T06:39:06.629Z,19.55
2022-11-17T06:44:09.117Z,18.67
2022-11-17T06:49:12.131Z,18.98
2022-11-17T06:54:15.000Z,18.05
2022-11-17T06:59:17.667Z,18.80
2022-11-17T07:04:20.013Z,19.17
2022-11-17T07:09:23.078Z,19.45
2022-11-17T07:14:25.400Z,20.33
2022-11-17T07:19:27.752Z,23.88
2022-11-17T07:24:30.732Z,21.65
2022-11-17T07:29:33.149Z,21.45
2022-11-17T07:34:35.626Z,21.77
2022-11-17T07:39:37.925Z,19.90
2022-11-17T07:44:40.239Z,19.02
2022-11-17T07:49:43.585Z,19.20
2022-11-17T07:54:45.898Z,19.77
2022-11-17T07:59:48.222Z,19.05
2022-11-17T08:04:50.703Z,18.00
2022-11-17T08:09:53.488Z,18.00
2022-11-17T08:14:55.818Z,19.10
2022-11-17T08:19:58.193Z,17.70
2022-11-17T08:25:02.735Z,17.83
2022-11-17T08:30:07.745Z,16.52
2022-11-17T08:35:10.484Z,16.55
2022-11-17T08:40:13.668Z,16.88
2022-11-17T08:45:18.649Z,18.15
2022-11-17T08:50:25.098Z,21.15
2022-11-17T08:55:27.488Z,16.90
2022-11-17T09:00:34.232Z,16.00
2022-11-17T09:05:41.037Z,16.58
2022-11-17T09:10:44.116Z,16.38
2022-11-17T09:15:46.501Z,16.70
2022-11-17T09:20:49.177Z,18.35
2022-11-17T09:25:51.619Z,17.98
2022-11-17T09:30:54.142Z,17.48
2022-11-17T09:35:57.839Z,15.40
2022-11-17T09:41:09.676Z,17.38
2022-11-17T09:46:43.962Z,15.15
2022-11-17T09:51:48.021Z,14.02
2022-11-17T09:56:51.523Z,15.13
2022-11-17T10:01:58.310Z,13.93
2022-11-17T10:07:09.707Z,13.38
2022-11-17T10:12:23.280Z,14.00
2022-11-17T10:17:25.965Z,16.95
2022-11-17T10:22:34.792Z,14.15
2022-11-17T10:27:44.058Z,15.60
2022-11-17T10:32:53.940Z,13.07
2022-11-17T10:38:09.178Z,11.77
2022-11-17T10:43:11.616Z,13.00
2022-11-17T10:48:20.708Z,12.80
2022-11-17T10:53:24.933Z,12.82
2022-11-17T10:58:30.021Z,14.20
2022-11-17T11:03:36.583Z,12.63
2022-11-17T11:09:11.568Z,12.88
2022-11-17T11:14:26.609Z,12.32
2022-11-17T11:19:30.992Z,11.90
2022-11-17T11:24:48.984Z,14.38
2022-11-17T11:30:05.624Z,16.52
2022-11-17T11:35:36.991Z,18.77
2022-11-17T11:40:41.852Z,19.92
2022-11-17T11:46:10.605Z,20.20
2022-11-17T11:51:37.447Z,21.70
2022-11-17T11:56:42.459Z,23.55
2022-11-17T12:01:52.781Z,21.45
2022-11-17T12:07:17.772Z,20.83
2022-11-17T12:12:27.571Z,20.10
2022-11-17T12:17:29.901Z,21.08
2022-11-17T12:22:35.124Z,22.75
2022-11-17T12:27:38.511Z,23.70
2022-11-17T12:32:44.728Z,24.67
2022-11-17T12:37:47.748Z,22.08
2022-11-17T12:43:19.335Z,24.07
2022-11-17T12:48:34.984Z,23.33
2022-11-17T12:53:49.512Z,25.55
2022-11-17T12:58:58.492Z,24.75
2022-11-17T13:04:28.195Z,25.42
2022-11-17T13:10:01.591Z,23.73
2022-11-17T13:15:09.050Z,25.77
2022-11-17T13:20:33.597Z,24.27
2022-11-17T13:31:15.290Z,27.20
2022-11-17T13:36:32.579Z,24.25
2022-11-17T13:41:39.388Z,26.88
2022-11-17T13:46:59.531Z,27.08
2022-11-17T13:52:05.910Z,24.48
2022-11-17T13:57:41.696Z,23.58
2022-11-17T14:03:14.133Z,20.17
2022-11-17T14:08:24.040Z,18.42
2022-11-17T14:13:31.031Z,17.00
2022-11-17T14:19:03.573Z,16.88
2022-11-17T14:24:51.505Z,15.77
2022-11-17T14:29:55.304Z,16.27
2022-11-17T14:34:58.369Z,15.63
2022-11-17T14:40:05.712Z,16.67
2022-11-17T14:45:15.735Z,16.67
2022-11-17T14:50:18.962Z,16.63
2022-11-17T14:55:22.249Z,15.77
2022-11-17T15:00:25.102Z,19.00
2022-11-17T15:05:27.640Z,20.67
2022-11-17T15:10:30.066Z,25.20
2022-11-17T15:15:33.355Z,21.48
2022-11-17T15:20:36.117Z,19.40
2022-11-17T15:25:39.107Z,20.90
2022-11-17T15:30:43.223Z,34.63
2022-11-17T15:35:46.321Z,24.77
2022-11-17T15:41:06.764Z,36.72
2022-11-17T15:46:29.132Z,30.17
2022-11-17T15:51:43.834Z,26.20
2022-11-17T15:56:57.521Z,29.70
2022-11-17T16:02:24.220Z,32.75
2022-11-17T16:07:43.009Z,35.40
2022-11-17T16:13:05.552Z,28.27
2022-11-17T16:23:17.411Z,23.75
2022-11-17T16:28:24.782Z,25.98
2022-11-17T16:33:34.154Z,30.15
2022-11-17T16:38:59.845Z,25.58
2022-11-17T16:44:10.297Z,22.80
2022-11-17T16:49:17.353Z,22.90
2022-11-17T16:54:23.682Z,22.77
2022-11-17T16:59:28.328Z,20.92
2022-11-17T17:04:36.112Z,21.73
2022-11-17T17:09:44.243Z,24.05
2022-11-17T17:14:53.018Z,22.13
2022-11-17T17:19:55.966Z,22.25
2022-11-17T17:24:58.574Z,23.23
2022-11-17T17:30:05.257Z,26.15
2022-11-17T17:35:09.886Z,24.40
2022-11-17T17:40:12.597Z,24.25
2022-11-17T17:45:55.601Z,21.92
2022-11-17T17:51:10.652Z,23.77
2022-11-17T17:56:14.376Z,22.75
2022-11-17T18:01:23.753Z,23.85
2022-11-17T18:06:27.921Z,22.33
2022-11-17T18:11:34.592Z,24.80
2022-11-17T18:16:51.012Z,24.10
2022-11-17T18:21:59.264Z,25.60
2022-11-17T18:27:05.059Z,32.13
2022-11-17T18:32:07.647Z,34.63
2022-11-17T18:37:10.372Z,24.17
2022-11-17T18:42:12.990Z,38.05
2022-11-17T18:47:21.715Z,42.05
2022-11-17T18:52:45.875Z,27.67
2022-11-17T18:57:50.402Z,41.97
2022-11-17T19:02:55.364Z,39.75
2022-11-17T19:07:57.645Z,34.67
2022-11-17T19:13:00.116Z,34.95
2022-11-17T19:18:02.511Z,41.53
2022-11-17T19:23:04.931Z,38.15
2022-11-17T19:28:10.954Z,31.27
2022-11-17T19:33:13.671Z,37.13
2022-11-17T19:38:16.029Z,39.63
2022-11-17T19:43:22.136Z,34.83
2022-11-17T19:48:24.552Z,33.42
2022-11-17T19:53:27.401Z,33.42
2022-11-17T19:58:29.845Z,32.60
2022-11-17T20:03:34.464Z,32.80
2022-11-17T20:08:37.463Z,30.83
2022-11-17T20:13:40.220Z,24.47
2022-11-17T20:18:43.393Z,34.60
2022-11-17T20:23:46.122Z,39.42
2022-11-17T20:28:50.433Z,35.50
2022-11-17T20:34:00.423Z,35.90
2022-11-17T20:39:09.726Z,32.38
2022-11-17T20:44:24.157Z,40.88
2022-11-17T20:49:29.592Z,28.88
2022-11-17T20:54:32.032Z,32.08
2022-11-17T20:59:34.565Z,37.60
2022-11-17T21:04:36.867Z,39.53
2022-11-17T21:09:39.215Z,34.17
2022-11-17T21:14:41.553Z,35.28
2022-11-17T21:19:43.877Z,31.77
2022-11-17T21:24:46.384Z,31.23
2022-11-17T21:29:48.854Z,27.65
2022-11-17T21:34:51.908Z,28.73
2022-11-17T21:39:54.460Z,28.27
2022-11-17T21:44:57.437Z,30.17
2022-11-17T21:49:59.870Z,29.52
2022-11-17T21:55:02.250Z,28.83
2022-11-17T22:00:06.000Z,30.70
2022-11-17T22:05:08.617Z,29.70
2022-11-17T22:10:11.255Z,37.13
2022-11-17T22:15:13.569Z,45.95
2022-11-17T22:20:16.297Z,47.17
2022-11-17T22:25:43.736Z,46.83
2022-11-17T22:30:40.993Z,49.65
2022-11-17T22:35:44.376Z,40.55
2022-11-17T22:40:46.808Z,34.92
2022-11-17T22:45:49.113Z,37.30
2022-11-17T22:50:51.533Z,34.13
2022-11-17T22:55:54.360Z,35.13
2022-11-17T23:00:56.774Z,38.90
2022-11-17T23:06:07.925Z,37.65
2022-11-17T23:11:38.790Z,36.72
2022-11-17T23:16:33.851Z,33.42
2022-11-17T23:21:36.503Z,33.15
2022-11-17T23:26:42.646Z,32.97
2022-11-17T23:31:50.309Z,32.10
2022-11-17T23:36:53.954Z,33.33
2022-11-17T23:41:56.477Z,33.13
2022-11-17T23:46:59.086Z,32.75
2022-11-17T23:52:02.123Z,33.33
2022-11-17T23:57:04.463Z,32.63
